Station: Bega  

  Atmospheric Gas Attenuation - ITU Rec 676-11   ----------------- dB/100km -----------------
Date Time Temp RH % AH g/m3 Dew Point Wind Direction Speed kph Gust kph Barometer mB Rainfall Since 9am 24GHz 47GHz 76GHz 122GHz 134GHz 241GHz
08/05 12:30 18.8 44 7.09 6.3 39 63 1014.9 0 16.2 22.3 32.0 83.5 74.3 254.6
08/05 12:20 18.6 44 7 6.1 30 37 1014.7 0 16.0 22.2 31.7 82.9 73.4 251.5
08/05 12:10 19.1 43 7.05 6.2 35 43 1014.6 0 16.1 22.2 31.7 82.8 73.5 252.0
08/05 12:00 19.1 44 7.21 6.6 35 54 1014.6 0 16.4 22.4 32.2 84.3 75.4 258.5
08/05 11:50 18.4 44 6.92 5.9 37 46 1014.4 0 15.8 22.2 31.5 82.3 72.6 248.8
08/05 11:40 19.4 44 7.34 6.8 32 39 1014.4 0 16.7 22.5 32.6 85.2 76.6 262.9
08/05 11:30 18.9 46 7.45 7 30 56 1014.5 0 16.9 22.8 33.2 86.8 78.4 269.1
08/05 11:20 18.6 45 7.16 6.4 46 56 1014.2 0 16.3 22.4 32.3 84.3 75.3 258.0
08/05 11:10 18.6 46 7.32 6.8 39 54 1014.1 0 16.7 22.7 32.8 85.9 77.1 264.6
08/05 11:00 18 46 7.06 6.2 46 78 1014.3 0 16.1 22.5 32.1 84.0 74.6 255.8
08/05 10:50 18.2 47 7.3 6.7 44 57 1014 0 16.6 22.7 32.9 86.1 77.3 265.0
08/05 10:40 18.1 48 7.42 6.9 43 50 1014 0 16.9 22.9 33.4 87.3 78.8 270.4
08/05 10:30 17.8 49 7.44 7 43 72 1013.9 0 16.9 23.0 33.6 87.9 79.3 272.2
08/05 10:20 17.8 50 7.59 7.2 39 50 1013.9 0 17.3 23.3 34.1 89.3 81.1 278.5
08/05 10:10 18.1 51 7.88 7.8 37 44 1013.8 0 17.9 23.6 35.0 91.8 84.3 289.7
08/05 10:00 17.8 51 7.74 7.5 43 56 1013.6 0 17.6 23.5 34.7 90.8 82.9 284.8
08/05 09:50 17.6 50 7.5 7.1 43 52 1013.5 0 17.1 23.2 33.9 88.6 80.2 275.3
08/05 09:40 17.5 51 7.6 7.3 41 54 1013.8 0 17.3 23.4 34.3 89.7 81.6 280.0
08/05 09:30 17.3 50 7.37 6.8 39 61 1013.9 0 16.8 23.1 33.5 87.7 79.0 270.9
08/05 09:20 17 51 7.38 6.8 48 57 1013.8 0 16.9 23.2 33.7 88.1 79.4 272.3
08/05 09:10 17.2 51 7.47 7 35 48 1013.9 0 17.0 23.2 33.9 88.8 80.3 275.5
08/05 09:00 16.9 51 7.33 6.7 37 69 1013.6 0 16.8 23.1 33.5 87.7 78.9 270.5
08/05 08:50 16.7 50 7.11 6.2 41 46 1013.6 0.2 16.3 22.8 32.8 85.8 76.4 261.9
08/05 08:40 16.6 51 7.2 6.4 37 44 1013.6 0.2 16.5 23.0 33.2 86.8 77.6 266.0
08/05 08:30 16.4 50 6.98 6 35 50 1013.5 0.2 16.0 22.7 32.4 84.8 75.1 257.3
08/05 08:20 16.2 51 7.03 6.1 30 39 1013.7 0.2 16.1 22.8 32.7 85.6 76.0 260.1
08/05 08:10 16.1 51 6.99 6 33 43 1013.6 0.2 16.1 22.8 32.6 85.3 75.6 258.7
08/05 08:00 16 50 6.81 5.6 37 54 1013.3 0.2 15.7 22.5 32.0 83.6 73.5 251.4
08/05 07:50 15.7 51 6.82 5.6 26 33 1013.4 0.2 15.7 22.6 32.1 84.0 73.9 252.8
08/05 07:40 15.4 51 6.7 5.3 26 28 1013.4 0.2 15.5 22.5 31.8 83.2 72.7 248.7
08/05 07:30 15.3 52 6.79 5.5 24 32 1013.4 0.2 15.7 22.7 32.2 84.1 73.9 252.8
08/05 07:20 15.3 52 6.79 5.5 20 24 1013.4 0.2 15.7 22.7 32.2 84.1 73.9 252.8
08/05 07:10 14.9 53 6.75 5.4 26 32 1013.4 0.2 15.6 22.7 32.2 84.2 73.8 252.3
08/05 07:00 15 52 6.67 5.2 24 35 1013.1 0.2 15.4 22.6 31.9 83.2 72.7 248.6
08/05 06:50 14.6 53 6.63 5.1 19 24 1013.3 0.2 15.4 22.6 31.9 83.3 72.6 248.1
08/05 06:40 14.8 53 6.71 5.3 15 15 1013.2 0.2 15.5 22.7 32.1 83.9 73.4 250.9
08/05 06:30 14.7 53 6.67 5.2 20 30 1013.1 0.2 15.4 22.7 32.0 83.6 73.0 249.5
08/05 06:20 14.4 54 6.68 5.2 13 15 1013.1 0.2 15.5 22.7 32.1 84.0 73.4 250.8
08/05 06:10 14.7 53 6.67 5.2 9 11 1012.7 0.2 15.4 22.6 32.0 83.5 72.9 249.4
08/05 06:00 14.9 52 6.63 5.1 20 39 1012.4 0.2 15.3 22.5 31.7 82.9 72.3 247.0
08/05 05:50 15 52 6.67 5.2 19 26 1012.4 0.2 15.4 22.6 31.8 83.2 72.6 248.4
08/05 05:40 15 52 6.67 5.2 19 20 1012.4 0.2 15.4 22.6 31.8 83.2 72.6 248.4
08/05 05:30 14.9 52 6.63 5.1 24 43 1012.3 0.2 15.3 22.5 31.7 82.9 72.2 247.0
08/05 05:20 14.7 52 6.55 5 24 32 1012.2 0.2 15.2 22.4 31.5 82.3 71.5 244.2
08/05 05:10 14.8 52 6.59 5.1 26 33 1012.4 0.2 15.3 22.5 31.6 82.6 71.9 245.6
08/05 05:00 14.6 53 6.63 5.1 22 37 1012.2 0.2 15.4 22.6 31.8 83.2 72.5 247.9
08/05 04:50 14.8 52 6.59 5.1 20 26 1012.2 0.2 15.3 22.5 31.6 82.6 71.9 245.6
08/05 04:40 15 52 6.67 5.2 33 43 1012.2 0.2 15.4 22.5 31.8 83.2 72.6 248.4
08/05 04:30 14.6 53 6.63 5.1 24 35 1012.2 0.2 15.4 22.6 31.8 83.2 72.5 247.9
08/05 04:20 14.1 53 6.43 4.7 17 22 1012.4 0.2 15.0 22.4 31.3 81.8 70.6 241.0
08/05 04:10 14.1 53 6.43 4.7 22 30 1012.3 0.2 15.0 22.4 31.3 81.7 70.6 240.9
08/05 04:00 14.3 52 6.39 4.6 26 46 1012.4 0.2 14.9 22.3 31.1 81.2 69.9 238.7
08/05 03:50 14.3 52 6.39 4.6 24 30 1012.4 0.2 14.9 22.3 31.1 81.2 69.9 238.7
08/05 03:40 14 53 6.39 4.6 26 30 1012.5 0.2 14.9 22.4 31.2 81.5 70.2 239.6
08/05 03:30 13.5 54 6.32 4.4 19 35 1012.7 0.2 14.7 22.4 31.1 81.3 69.8 238.1
08/05 03:20 13.4 53 6.16 4 19 22 1012.9 0.2 14.4 22.2 30.6 79.9 67.9 231.7
08/05 03:10 13 54 6.12 3.9 15 19 1013.1 0.2 14.3 22.3 30.6 79.9 67.8 231.1
08/05 03:00 13.1 54 6.16 4 13 24 1013.4 0.2 14.4 22.3 30.7 80.2 68.2 232.6
08/05 02:50 13.2 54 6.2 4.1 20 24 1013.4 0.2 14.5 22.3 30.8 80.5 68.6 234.0
08/05 02:40 12.3 54 5.86 3.3 7 9 1013.5 0.2 13.8 22.0 29.9 78.1 65.3 222.1
08/05 02:30 12.7 54 6.01 3.6 13 20 1013.8 0.2 14.1 22.2 30.3 79.2 66.8 227.5
08/05 02:20 12.6 54 5.97 3.5 13 19 1013.9 0.2 14.0 22.2 30.2 78.9 66.4 226.1
08/05 02:10 12.3 55 5.97 3.5 13 22 1014.1 0.2 14.0 22.2 30.4 79.2 66.6 226.9
08/05 02:00 12 55 5.86 3.3 13 24 1014.4 0.2 13.8 22.2 30.1 78.4 65.6 223.1
08/05 01:50 12 54 5.76 3 13 15 1014.5 0.2 13.6 22.0 29.7 77.4 64.4 218.9
08/05 01:40 11.9 54 5.72 2.9 19 24 1014.5 0.2 13.5 22.0 29.6 77.2 63.9 217.4
08/05 01:30 12.2 53 5.72 2.9 28 46 1014.6 0.2 13.5 21.9 29.5 76.9 63.7 216.7
08/05 01:20 12 53 5.65 2.7 26 35 1014.9 0.2 13.4 21.9 29.3 76.4 63.0 214.3
08/05 01:10 11.5 54 5.58 2.5 24 32 1014.9 0.2 13.2 21.9 29.2 76.2 62.6 212.6
08/05 01:00 11.6 53 5.51 2.4 20 32 1015 0.2 13.1 21.8 29.0 75.4 61.7 209.4
08/05 00:50 11.9 52 5.51 2.4 24 35 1015.2 0.2 13.1 21.7 28.9 75.2 61.5 208.7
08/05 00:40 11.5 53 5.48 2.3 20 30 1015.5 0.2 13.0 21.7 28.9 75.3 61.4 208.5
08/05 00:20 10.4 59 5.69 2.7 13 13 1016 0.2 13.5 22.3 30.1 78.4 64.9 220.5
08/05 00:10 10.9 58 5.77 3 11 15 1016.1 0.2 13.7 22.3 30.2 78.8 65.5 222.6
08/05 00:00 10.6 59 5.76 2.9 11 19 1016.2 0.2 13.7 22.4 30.3 79.0 65.6 223.1
07/05 23:50 11 58 5.81 3.1 19 20 1016.3 0.2 13.8 22.4 30.3 79.1 65.9 224.1
07/05 23:40 11.1 58 5.84 3.2 22 30 1016.3 0.2 13.8 22.4 30.4 79.3 66.2 225.1
07/05 23:30 10.9 58 5.77 3 13 24 1016.6 0.2 13.7 22.4 30.2 78.8 65.5 222.7
07/05 23:20 10.9 58 5.77 3 13 20 1016.7 0.2 13.7 22.4 30.2 78.8 65.5 222.8
07/05 23:10 11.1 57 5.74 2.9 20 28 1016.8 0.2 13.6 22.3 30.1 78.3 65.0 220.9
07/05 23:00 10.8 57 5.64 2.6 24 39 1017.1 0.2 13.4 22.2 29.8 77.6 64.0 217.5
07/05 22:50 10.9 57 5.67 2.7 26 32 1017 0.2 13.5 22.2 29.9 77.8 64.3 218.5
07/05 22:40 10.7 57 5.6 2.5 30 35 1017 0.2 13.3 22.2 29.7 77.3 63.6 216.0
07/05 22:30 10.5 56 5.43 2.1 19 30 1017.2 0.2 13.0 22.0 29.1 75.9 61.7 209.3
07/05 22:20 10.7 55 5.4 2 17 20 1017.3 0.2 12.9 21.9 29.0 75.4 61.2 207.5
07/05 22:10 10.5 56 5.43 2.1 9 11 1017.5 0.2 13.0 22.0 29.1 75.9 61.7 209.3
07/05 22:00 10.8 55 5.44 2.1 20 33 1017.7 0.2 13.0 21.9 29.1 75.7 61.6 209.0
07/05 21:50 10.9 54 5.37 2 20 24 1017.7 0.2 12.8 21.8 28.8 74.9 60.7 205.8
07/05 21:40 10.7 55 5.4 2 19 32 1017.8 0.2 12.9 21.9 29.0 75.4 61.2 207.6
07/05 21:30 10.8 54 5.34 1.9 24 39 1017.8 0.2 12.8 21.8 28.7 74.7 60.4 204.7
07/05 21:20 11 53 5.31 1.8 20 22 1017.7 0.2 12.7 21.7 28.5 74.3 59.9 202.9
07/05 21:10 11.1 52 5.24 1.6 28 37 1017.5 0.2 12.5 21.6 28.2 73.5 58.9 199.7
07/05 21:00 11.2 51 5.17 1.5 28 41 1017.5 0.2 12.4 21.4 27.9 72.7 58.0 196.5
07/05 20:50 10.9 52 5.17 1.4 24 28 1017.4 0.2 12.4 21.5 28.0 73.0 58.2 197.2
07/05 20:40 11 51 5.11 1.3 30 33 1017.4 0.2 12.3 21.4 27.8 72.3 57.4 194.4
07/05 20:30 11 50 5.01 1 30 50 1017.4 0.2 12.1 21.2 27.4 71.3 56.2 190.2
07/05 20:20 11 50 5.01 1 32 37 1017.3 0.2 12.1 21.2 27.4 71.3 56.2 190.2
07/05 20:10 11 49 4.91 0.7 28 43 1017.2 0.2 11.8 21.1 27.1 70.3 55.0 186.0
07/05 20:00 11.1 49 4.94 0.8 28 46 1017.1 0.2 11.9 21.1 27.1 70.5 55.3 187.0
07/05 19:50 10.9 48 4.78 0.3 28 33 1017 0.2 11.6 20.9 26.6 69.2 53.6 180.8

Last Refresh: 08-May-2026 12:08:49

Bureau of Meteorology